DLH1KT EDDH-EDVK
Flight info
| Callsign | DLH1KT |
|---|---|
| Flight time | 0h 31m |
| Altitude | 23000 |
| Route | IDEKO7G/33 IDEKO N850 GISEM |
| Aircraft | A321/M-SDE3FGHIRWY/LB1 |
Departure
| Time | 2026-04-30 20:50 |
|---|---|
| Airport | Hamburg Helmut Schmidt Airport (EDDH) |
Arrival
| Time | 2026-04-30 21:21 |
|---|---|
| Airport | Kassel Airport (EDVK) |
| Time | Latitude | Longitude | Altitude | Speed | Heading |
|---|---|---|---|---|---|
| 2026-04-30 20:18 | 53.63372 | 10.00336 | 45 ft | 0 kts | 86° |
| 2026-04-30 20:38 | 53.63373 | 10.00304 | 47 ft | 4 kts | 105° |
| 2026-04-30 20:39 | 53.63388 | 10.00231 | 45 ft | 4 kts | 145° |
| 2026-04-30 20:39 | 53.63411 | 10.00216 | 48 ft | 3 kts | 175° |
| 2026-04-30 20:39 | 53.63415 | 10.00215 | 45 ft | 0 kts | 175° |
| 2026-04-30 20:44 | 53.63400 | 10.00220 | 45 ft | 0 kts | 168° |
| 2026-04-30 20:44 | 53.63310 | 10.00236 | 48 ft | 9 kts | 176° |
| 2026-04-30 20:45 | 53.63167 | 10.00253 | 48 ft | 12 kts | 175° |
| 2026-04-30 20:45 | 53.63095 | 10.00262 | 48 ft | 8 kts | 177° |
| 2026-04-30 20:45 | 53.63045 | 10.00236 | 48 ft | 8 kts | 210° |
| 2026-04-30 20:46 | 53.62894 | 10.00075 | 48 ft | 9 kts | 214° |
| 2026-04-30 20:46 | 53.62857 | 9.99999 | 48 ft | 9 kts | 241° |
| 2026-04-30 20:47 | 53.62829 | 9.99787 | 42 ft | 7 kts | 313° |
| 2026-04-30 20:47 | 53.62870 | 9.99743 | 45 ft | 0 kts | 332° |
| 2026-04-30 20:50 | 53.63119 | 9.99529 | 46 ft | 79 kts | 333° |
| 2026-04-30 20:50 | 53.63814 | 9.98928 | 49 ft | 143 kts | 333° |
| 2026-04-30 20:50 | 53.64840 | 9.98047 | 270 ft | 173 kts | 335° |
| 2026-04-30 20:50 | 53.65906 | 9.97158 | 1072 ft | 171 kts | 335° |
| 2026-04-30 20:51 | 53.66985 | 9.96240 | 1595 ft | 180 kts | 334° |
| 2026-04-30 20:51 | 53.69481 | 9.94103 | 2195 ft | 217 kts | 334° |
| 2026-04-30 20:51 | 53.70738 | 9.92678 | 2720 ft | 222 kts | 311° |
| 2026-04-30 20:52 | 53.71390 | 9.90335 | 3271 ft | 227 kts | 277° |
| 2026-04-30 20:52 | 53.71181 | 9.87612 | 3496 ft | 248 kts | 250° |
| 2026-04-30 20:52 | 53.69997 | 9.81772 | 4563 ft | 271 kts | 250° |
| 2026-04-30 20:53 | 53.69378 | 9.78734 | 5249 ft | 277 kts | 250° |
| 2026-04-30 20:53 | 53.68751 | 9.75630 | 5923 ft | 282 kts | 250° |
| 2026-04-30 20:53 | 53.68116 | 9.72465 | 6601 ft | 287 kts | 250° |
| 2026-04-30 20:54 | 53.66829 | 9.65981 | 7932 ft | 295 kts | 251° |
| 2026-04-30 20:54 | 53.66073 | 9.62755 | 8595 ft | 297 kts | 239° |
| 2026-04-30 20:54 | 53.64809 | 9.60004 | 9264 ft | 298 kts | 220° |
| 2026-04-30 20:55 | 53.61128 | 9.57104 | 10571 ft | 296 kts | 184° |
| 2026-04-30 20:55 | 53.59017 | 9.56694 | 10768 ft | 316 kts | 183° |
| 2026-04-30 20:55 | 53.56770 | 9.56273 | 10900 ft | 329 kts | 183° |
| 2026-04-30 20:56 | 53.52214 | 9.55383 | 11139 ft | 330 kts | 184° |
| 2026-04-30 20:56 | 53.49933 | 9.54929 | 11259 ft | 331 kts | 183° |
| 2026-04-30 20:56 | 53.45352 | 9.54020 | 11501 ft | 332 kts | 183° |
| 2026-04-30 20:57 | 53.43000 | 9.53559 | 11702 ft | 347 kts | 183° |
| 2026-04-30 20:57 | 53.40593 | 9.53088 | 12055 ft | 345 kts | 183° |
| 2026-04-30 20:57 | 53.38273 | 9.52624 | 12153 ft | 330 kts | 183° |
| 2026-04-30 20:58 | 53.33502 | 9.51695 | 12706 ft | 356 kts | 183° |
| 2026-04-30 20:58 | 53.31025 | 9.51210 | 13262 ft | 360 kts | 183° |
| 2026-04-30 20:58 | 53.28519 | 9.50715 | 13833 ft | 364 kts | 183° |
| 2026-04-30 20:58 | 53.25996 | 9.50220 | 14382 ft | 368 kts | 183° |
| 2026-04-30 20:59 | 53.20862 | 9.49217 | 15393 ft | 375 kts | 183° |
| 2026-04-30 20:59 | 53.18260 | 9.48712 | 15897 ft | 378 kts | 183° |
| 2026-04-30 21:00 | 53.12981 | 9.47688 | 16903 ft | 385 kts | 183° |
| 2026-04-30 21:00 | 53.07616 | 9.46653 | 17871 ft | 392 kts | 184° |
| 2026-04-30 21:01 | 53.02149 | 9.45595 | 18817 ft | 398 kts | 184° |
| 2026-04-30 21:01 | 52.99383 | 9.45056 | 19246 ft | 401 kts | 184° |
| 2026-04-30 21:01 | 52.93804 | 9.43894 | 20085 ft | 407 kts | 185° |
| 2026-04-30 21:02 | 52.90987 | 9.43284 | 20496 ft | 410 kts | 185° |
| 2026-04-30 21:02 | 52.88150 | 9.42665 | 20911 ft | 412 kts | 185° |
| 2026-04-30 21:02 | 52.85301 | 9.42040 | 21327 ft | 415 kts | 185° |
| 2026-04-30 21:02 | 52.82425 | 9.41412 | 21734 ft | 418 kts | 185° |
| 2026-04-30 21:03 | 52.79539 | 9.40793 | 22073 ft | 420 kts | 185° |
| 2026-04-30 21:03 | 52.76641 | 9.40181 | 22324 ft | 421 kts | 185° |
| 2026-04-30 21:03 | 52.73731 | 9.39568 | 22588 ft | 422 kts | 185° |
| 2026-04-30 21:03 | 52.70845 | 9.38957 | 22851 ft | 424 kts | 185° |
| 2026-04-30 21:04 | 52.67875 | 9.38329 | 23123 ft | 426 kts | 185° |
| 2026-04-30 21:04 | 52.64929 | 9.37707 | 23369 ft | 428 kts | 185° |
| 2026-04-30 21:04 | 52.59078 | 9.36400 | 23433 ft | 425 kts | 186° |
| 2026-04-30 21:05 | 52.56115 | 9.35632 | 23438 ft | 437 kts | 187° |
| 2026-04-30 21:05 | 52.53075 | 9.34805 | 23440 ft | 449 kts | 187° |
| 2026-04-30 21:05 | 52.49950 | 9.33946 | 23439 ft | 460 kts | 187° |
| 2026-04-30 21:05 | 52.46756 | 9.33080 | 23433 ft | 470 kts | 187° |
| 2026-04-30 21:06 | 52.43506 | 9.32213 | 23368 ft | 476 kts | 187° |
| 2026-04-30 21:06 | 52.40235 | 9.31354 | 22664 ft | 474 kts | 187° |
| 2026-04-30 21:06 | 52.37039 | 9.30519 | 22497 ft | 455 kts | 187° |
| 2026-04-30 21:06 | 52.33997 | 9.29726 | 22051 ft | 444 kts | 186° |
| 2026-04-30 21:07 | 52.30925 | 9.28928 | 21400 ft | 439 kts | 186° |
| 2026-04-30 21:07 | 52.27962 | 9.28157 | 20783 ft | 434 kts | 186° |
| 2026-04-30 21:07 | 52.24961 | 9.27379 | 20178 ft | 429 kts | 186° |
| 2026-04-30 21:07 | 52.22033 | 9.26638 | 19055 ft | 422 kts | 185° |
| 2026-04-30 21:08 | 52.19180 | 9.26030 | 17604 ft | 416 kts | 184° |
| 2026-04-30 21:08 | 52.16330 | 9.25514 | 16269 ft | 407 kts | 182° |
| 2026-04-30 21:08 | 52.13510 | 9.25046 | 14998 ft | 398 kts | 182° |
| 2026-04-30 21:08 | 52.10790 | 9.24604 | 13736 ft | 388 kts | 182° |
| 2026-04-30 21:09 | 52.08134 | 9.24164 | 12401 ft | 380 kts | 182° |
| 2026-04-30 21:09 | 52.05529 | 9.23718 | 11831 ft | 375 kts | 182° |
| 2026-04-30 21:09 | 52.03006 | 9.23191 | 11695 ft | 357 kts | 184° |
| 2026-04-30 21:09 | 52.00573 | 9.22569 | 11569 ft | 341 kts | 185° |
| 2026-04-30 21:10 | 51.98287 | 9.21933 | 11434 ft | 326 kts | 185° |
| 2026-04-30 21:10 | 51.96132 | 9.21321 | 11324 ft | 312 kts | 185° |
| 2026-04-30 21:10 | 51.94031 | 9.20732 | 11167 ft | 301 kts | 185° |
| 2026-04-30 21:10 | 51.91957 | 9.20170 | 10855 ft | 296 kts | 184° |
| 2026-04-30 21:11 | 51.89931 | 9.19638 | 10506 ft | 294 kts | 184° |
| 2026-04-30 21:11 | 51.87925 | 9.19098 | 10140 ft | 293 kts | 188° |
| 2026-04-30 21:11 | 51.85961 | 9.18167 | 9694 ft | 294 kts | 193° |
| 2026-04-30 21:11 | 51.84034 | 9.17117 | 9324 ft | 292 kts | 194° |
| 2026-04-30 21:12 | 51.82120 | 9.16061 | 8965 ft | 289 kts | 194° |
| 2026-04-30 21:12 | 51.80224 | 9.15015 | 8591 ft | 287 kts | 194° |
| 2026-04-30 21:12 | 51.78344 | 9.13978 | 8218 ft | 285 kts | 194° |
| 2026-04-30 21:12 | 51.76478 | 9.12945 | 7866 ft | 282 kts | 194° |
| 2026-04-30 21:13 | 51.74628 | 9.11922 | 7507 ft | 280 kts | 194° |
| 2026-04-30 21:13 | 51.72793 | 9.10910 | 7161 ft | 278 kts | 194° |
| 2026-04-30 21:13 | 51.70970 | 9.09905 | 6821 ft | 276 kts | 194° |
| 2026-04-30 21:13 | 51.69164 | 9.08909 | 6453 ft | 273 kts | 193° |
| 2026-04-30 21:14 | 51.67361 | 9.08434 | 6137 ft | 263 kts | 176° |
| 2026-04-30 21:14 | 51.65518 | 9.08469 | 5877 ft | 260 kts | 174° |
| 2026-04-30 21:14 | 51.63723 | 9.08563 | 5626 ft | 258 kts | 174° |
| 2026-04-30 21:14 | 51.61938 | 9.08669 | 5378 ft | 256 kts | 174° |
| 2026-04-30 21:15 | 51.60164 | 9.08783 | 5125 ft | 254 kts | 174° |
| 2026-04-30 21:15 | 51.58399 | 9.08901 | 4837 ft | 254 kts | 174° |
| 2026-04-30 21:15 | 51.56659 | 9.09010 | 4457 ft | 254 kts | 174° |
| 2026-04-30 21:15 | 51.54897 | 9.09111 | 4074 ft | 253 kts | 174° |
| 2026-04-30 21:16 | 51.53142 | 9.09196 | 3695 ft | 252 kts | 174° |
| 2026-04-30 21:16 | 51.51412 | 9.09263 | 3425 ft | 246 kts | 174° |
| 2026-04-30 21:16 | 51.49743 | 9.09306 | 3163 ft | 234 kts | 174° |
| 2026-04-30 21:16 | 51.48188 | 9.09453 | 3016 ft | 213 kts | 160° |
| 2026-04-30 21:17 | 51.46943 | 9.10575 | 2997 ft | 205 kts | 137° |
| 2026-04-30 21:17 | 51.45887 | 9.12110 | 2998 ft | 204 kts | 134° |
| 2026-04-30 21:17 | 51.44864 | 9.13696 | 3001 ft | 205 kts | 134° |
| 2026-04-30 21:17 | 51.43857 | 9.15351 | 3003 ft | 202 kts | 125° |
| 2026-04-30 21:18 | 51.43283 | 9.17266 | 3011 ft | 188 kts | 105° |
| 2026-04-30 21:18 | 51.43136 | 9.19231 | 3002 ft | 167 kts | 98° |
| 2026-04-30 21:18 | 51.43045 | 9.21010 | 2885 ft | 154 kts | 98° |
| 2026-04-30 21:18 | 51.42960 | 9.22639 | 2735 ft | 142 kts | 99° |
| 2026-04-30 21:19 | 51.42871 | 9.24290 | 2551 ft | 157 kts | 97° |
| 2026-04-30 21:19 | 51.42781 | 9.25994 | 2348 ft | 159 kts | 97° |
| 2026-04-30 21:19 | 51.42693 | 9.27691 | 2120 ft | 148 kts | 97° |
| 2026-04-30 21:19 | 51.42608 | 9.29296 | 1902 ft | 142 kts | 96° |
| 2026-04-30 21:20 | 51.42525 | 9.30870 | 1717 ft | 142 kts | 95° |
| 2026-04-30 21:20 | 51.42441 | 9.32433 | 1519 ft | 140 kts | 95° |
| 2026-04-30 21:20 | 51.42359 | 9.33987 | 1332 ft | 140 kts | 94° |
| 2026-04-30 21:20 | 51.42275 | 9.35554 | 1149 ft | 141 kts | 94° |
| 2026-04-30 21:21 | 51.42192 | 9.37110 | 960 ft | 140 kts | 95° |
| 2026-04-30 21:21 | 51.42110 | 9.38625 | 849 ft | 128 kts | 95° |
| 2026-04-30 21:21 | 51.42023 | 9.40248 | 852 ft | 29 kts | 95° |
| 2026-04-30 21:22 | 51.42004 | 9.40601 | 864 ft | 26 kts | 95° |
| 2026-04-30 21:22 | 51.41864 | 9.40972 | 864 ft | 9 kts | 191° |
| 2026-04-30 21:23 | 51.41832 | 9.40893 | 858 ft | 10 kts | 268° |
| 2026-04-30 21:23 | 51.41837 | 9.40765 | 852 ft | 16 kts | 275° |
| 2026-04-30 21:23 | 51.41864 | 9.40271 | 853 ft | 24 kts | 275° |
| 2026-04-30 21:24 | 51.41878 | 9.39994 | 864 ft | 25 kts | 275° |
| 2026-04-30 21:24 | 51.41892 | 9.39740 | 864 ft | 22 kts | 275° |
| 2026-04-30 21:24 | 51.41905 | 9.39492 | 864 ft | 23 kts | 275° |
| 2026-04-30 21:24 | 51.41918 | 9.39257 | 864 ft | 22 kts | 275° |
| 2026-04-30 21:25 | 51.41931 | 9.38896 | 855 ft | 11 kts | 245° |
| 2026-04-30 21:25 | 51.41862 | 9.38856 | 864 ft | 12 kts | 186° |
| 2026-04-30 21:25 | 51.41785 | 9.38845 | 859 ft | 10 kts | 185° |
| 2026-04-30 21:26 | 51.41697 | 9.38799 | 859 ft | 5 kts | 271° |
| 2026-04-30 21:26 | 51.41698 | 9.38774 | 864 ft | 0 kts | 274° |